Huvudsida
METAR-TAF:

METAR-TAF

Flygplatser :

Parma, Italien

latitud: 44-49-17N, longitud: 010-17-41E, höjd: 50 m

Aktuellt väderrapport

Denna rapport gjordes för 1 timme och 13 minuter sedan, klockan 10:50 UTC
Vind 4 kt varierande vindriktning
Temperatur 30°C
Fuktighet 33%
Tryck 1012 hPa
Sikt 10 km eller mer
Inga moln under 1 500 m eller inga cumulonimbus

METAR: LIMP 201050Z VRB04KT CAVOK 30/12 Q1012

Tid: 14:03 (12:03 UTC)

Väderprognos

Denna rapport gjordes för 1 timme och 3 minuter sedan, klockan 11:00 UTC
Prognos gäller från 20 kl. 12 UTC till 21 kl. 12 UTC
Vind 5 kt varierande vindriktning
Sikt 10 km eller mer
Inga moln under 1 500 m eller inga cumulonimbus

TAF: LIMP 201100Z 2012/2112 VRB05KT CAVOK

Aktuella väderrapporter och prognoser från 4000 flygplatser (METAR- och TAF-rapporter).

De tillgängliga stationerna syns som gula och röda prickar på kartan.

För musen över prickarna för att se namnen på stationerna.

Klicka sedan för att få väderrapporter och prognoser.

För att ändra kartan: Klicka på de gröna knapparna med ett svart kors på för att zooma in; den gröna knappen med ett streck på för att zooma ut; eller på de gröna pilarna för angränsande kartor.


METAR-TAF: